sensor_id;sensor_type;location;lat;lon;timestamp;P1;durP1;ratioP1;P2;durP2;ratioP2
11066;SDS011;29763;50.904;5.530;2023-07-09T00:01:57;11.23;;;10.27;;
11066;SDS011;29763;50.904;5.530;2023-07-09T00:04:33;12.52;;;10.52;;
11066;SDS011;29763;50.904;5.530;2023-07-09T00:07:00;11.82;;;10.63;;
11066;SDS011;29763;50.904;5.530;2023-07-09T00:09:33;12.02;;;10.93;;
11066;SDS011;29763;50.904;5.530;2023-07-09T00:12:07;12.48;;;11.27;;
11066;SDS011;29763;50.904;5.530;2023-07-09T00:14:40;11.48;;;10.43;;
11066;SDS011;29763;50.904;5.530;2023-07-09T00:17:15;11.68;;;10.48;;
11066;SDS011;29763;50.904;5.530;2023-07-09T00:20:00;11.52;;;10.32;;
11066;SDS011;29763;50.904;5.530;2023-07-09T00:22:30;11.30;;;10.20;;
11066;SDS011;29763;50.904;5.530;2023-07-09T00:25:00;12.20;;;10.98;;
11066;SDS011;29763;50.904;5.530;2023-07-09T00:27:27;11.20;;;10.20;;
11066;SDS011;29763;50.904;5.530;2023-07-09T00:30:00;11.05;;;10.05;;
11066;SDS011;29763;50.904;5.530;2023-07-09T00:32:28;11.68;;;10.57;;
11066;SDS011;29763;50.904;5.530;2023-07-09T00:34:58;12.95;;;10.88;;
11066;SDS011;29763;50.904;5.530;2023-07-09T00:37:34;12.30;;;11.07;;
11066;SDS011;29763;50.904;5.530;2023-07-09T00:40:16;11.43;;;10.30;;
11066;SDS011;29763;50.904;5.530;2023-07-09T00:46:07;12.02;;;9.88;;
11066;SDS011;29763;50.904;5.530;2023-07-09T00:48:42;11.18;;;10.07;;
11066;SDS011;29763;50.904;5.530;2023-07-09T00:51:14;10.95;;;9.95;;
11066;SDS011;29763;50.904;5.530;2023-07-09T00:53:44;11.75;;;10.38;;
11066;SDS011;29763;50.904;5.530;2023-07-09T00:56:21;12.15;;;10.93;;
11066;SDS011;29763;50.904;5.530;2023-07-09T00:59:06;12.02;;;10.50;;
11066;SDS011;29763;50.904;5.530;2023-07-09T01:01:44;11.82;;;10.55;;
11066;SDS011;29763;50.904;5.530;2023-07-09T01:04:18;13.70;;;10.55;;
11066;SDS011;29763;50.904;5.530;2023-07-09T01:06:50;11.27;;;10.18;;
11066;SDS011;29763;50.904;5.530;2023-07-09T01:09:20;13.25;;;11.43;;
11066;SDS011;29763;50.904;5.530;2023-07-09T01:11:47;11.93;;;10.85;;
11066;SDS011;29763;50.904;5.530;2023-07-09T01:14:18;12.27;;;10.98;;
11066;SDS011;29763;50.904;5.530;2023-07-09T01:16:50;12.10;;;10.90;;
11066;SDS011;29763;50.904;5.530;2023-07-09T01:19:26;11.98;;;10.77;;
11066;SDS011;29763;50.904;5.530;2023-07-09T01:22:03;11.68;;;10.48;;
11066;SDS011;29763;50.904;5.530;2023-07-09T01:27:35;11.73;;;10.63;;
11066;SDS011;29763;50.904;5.530;2023-07-09T01:30:29;11.63;;;10.52;;
11066;SDS011;29763;50.904;5.530;2023-07-09T01:33:06;11.70;;;10.52;;
11066;SDS011;29763;50.904;5.530;2023-07-09T01:35:38;12.20;;;11.00;;
11066;SDS011;29763;50.904;5.530;2023-07-09T01:38:07;11.63;;;10.52;;
11066;SDS011;29763;50.904;5.530;2023-07-09T01:40:41;11.48;;;10.23;;
11066;SDS011;29763;50.904;5.530;2023-07-09T01:43:22;11.75;;;10.55;;
11066;SDS011;29763;50.904;5.530;2023-07-09T01:46:13;12.35;;;10.77;;
11066;SDS011;29763;50.904;5.530;2023-07-09T01:48:44;12.35;;;10.43;;
11066;SDS011;29763;50.904;5.530;2023-07-09T01:51:17;13.13;;;10.73;;
11066;SDS011;29763;50.904;5.530;2023-07-09T01:53:58;12.50;;;10.52;;
11066;SDS011;29763;50.904;5.530;2023-07-09T01:56:30;12.18;;;10.75;;
11066;SDS011;29763;50.904;5.530;2023-07-09T01:59:05;11.48;;;10.30;;
11066;SDS011;29763;50.904;5.530;2023-07-09T02:01:47;11.82;;;10.52;;
11066;SDS011;29763;50.904;5.530;2023-07-09T02:04:33;11.43;;;10.10;;
11066;SDS011;29763;50.904;5.530;2023-07-09T02:07:09;11.57;;;10.38;;
11066;SDS011;29763;50.904;5.530;2023-07-09T02:10:07;11.18;;;10.07;;
11066;SDS011;29763;50.904;5.530;2023-07-09T02:12:40;15.07;;;10.13;;
11066;SDS011;29763;50.904;5.530;2023-07-09T02:15:15;11.55;;;10.45;;
11066;SDS011;29763;50.904;5.530;2023-07-09T02:18:04;11.95;;;10.85;;
11066;SDS011;29763;50.904;5.530;2023-07-09T02:26:18;12.75;;;10.43;;
11066;SDS011;29763;50.904;5.530;2023-07-09T02:28:57;11.05;;;9.95;;
11066;SDS011;29763;50.904;5.530;2023-07-09T02:31:49;12.95;;;10.20;;
11066;SDS011;29763;50.904;5.530;2023-07-09T02:34:22;11.43;;;10.23;;
11066;SDS011;29763;50.904;5.530;2023-07-09T02:36:58;11.45;;;10.10;;
11066;SDS011;29763;50.904;5.530;2023-07-09T02:39:37;12.38;;;10.35;;
11066;SDS011;29763;50.904;5.530;2023-07-09T02:42:13;11.15;;;10.02;;
11066;SDS011;29763;50.904;5.530;2023-07-09T02:44:41;11.15;;;10.02;;
11066;SDS011;29763;50.904;5.530;2023-07-09T02:47:11;11.48;;;10.38;;
11066;SDS011;29763;50.904;5.530;2023-07-09T02:49:46;12.75;;;10.20;;
11066;SDS011;29763;50.904;5.530;2023-07-09T02:52:13;11.73;;;10.20;;
11066;SDS011;29763;50.904;5.530;2023-07-09T02:54:49;11.48;;;9.80;;
11066;SDS011;29763;50.904;5.530;2023-07-09T02:57:18;11.57;;;10.18;;
11066;SDS011;29763;50.904;5.530;2023-07-09T02:59:48;11.57;;;10.48;;
11066;SDS011;29763;50.904;5.530;2023-07-09T03:02:15;10.57;;;9.55;;
11066;SDS011;29763;50.904;5.530;2023-07-09T03:04:46;11.25;;;10.13;;
11066;SDS011;29763;50.904;5.530;2023-07-09T03:10:28;11.70;;;10.50;;
11066;SDS011;29763;50.904;5.530;2023-07-09T03:12:54;11.45;;;10.25;;
11066;SDS011;29763;50.904;5.530;2023-07-09T03:15:21;12.80;;;11.20;;
11066;SDS011;29763;50.904;5.530;2023-07-09T03:18:00;10.63;;;9.52;;
11066;SDS011;29763;50.904;5.530;2023-07-09T03:20:26;11.60;;;10.40;;
11066;SDS011;29763;50.904;5.530;2023-07-09T03:23:04;12.00;;;10.77;;
11066;SDS011;29763;50.904;5.530;2023-07-09T03:25:31;12.75;;;10.18;;
11066;SDS011;29763;50.904;5.530;2023-07-09T03:28:03;12.85;;;10.52;;
11066;SDS011;29763;50.904;5.530;2023-07-09T03:30:46;12.18;;;10.32;;
11066;SDS011;29763;50.904;5.530;2023-07-09T03:33:15;11.55;;;10.35;;
11066;SDS011;29763;50.904;5.530;2023-07-09T03:35:44;14.13;;;10.80;;
11066;SDS011;29763;50.904;5.530;2023-07-09T03:38:16;12.10;;;10.55;;
11066;SDS011;29763;50.904;5.530;2023-07-09T03:40:56;12.32;;;10.98;;
11066;SDS011;29763;50.904;5.530;2023-07-09T03:43:38;12.50;;;10.13;;
11066;SDS011;29763;50.904;5.530;2023-07-09T03:46:04;11.45;;;10.25;;
11066;SDS011;29763;50.904;5.530;2023-07-09T03:48:35;11.43;;;9.95;;
11066;SDS011;29763;50.904;5.530;2023-07-09T03:51:01;11.90;;;10.10;;
11066;SDS011;29763;50.904;5.530;2023-07-09T03:53:38;11.30;;;10.20;;
11066;SDS011;29763;50.904;5.530;2023-07-09T03:56:11;11.60;;;10.50;;
11066;SDS011;29763;50.904;5.530;2023-07-09T03:58:38;14.82;;;10.95;;
11066;SDS011;29763;50.904;5.530;2023-07-09T04:01:08;13.75;;;10.90;;
11066;SDS011;29763;50.904;5.530;2023-07-09T04:06:25;14.68;;;10.93;;
11066;SDS011;29763;50.904;5.530;2023-07-09T04:09:02;13.15;;;11.00;;
11066;SDS011;29763;50.904;5.530;2023-07-09T04:11:29;12.75;;;11.18;;
11066;SDS011;29763;50.904;5.530;2023-07-09T04:13:59;13.00;;;11.20;;
11066;SDS011;29763;50.904;5.530;2023-07-09T04:16:25;12.52;;;11.23;;
11066;SDS011;29763;50.904;5.530;2023-07-09T04:19:01;13.90;;;10.40;;
11066;SDS011;29763;50.904;5.530;2023-07-09T04:21:27;13.65;;;10.98;;
11066;SDS011;29763;50.904;5.530;2023-07-09T04:23:55;12.65;;;10.35;;
11066;SDS011;29763;50.904;5.530;2023-07-09T04:26:31;11.52;;;10.43;;
11066;SDS011;29763;50.904;5.530;2023-07-09T04:29:01;12.45;;;11.15;;
11066;SDS011;29763;50.904;5.530;2023-07-09T04:31:30;13.68;;;10.45;;
11066;SDS011;29763;50.904;5.530;2023-07-09T04:33:59;13.35;;;11.25;;
11066;SDS011;29763;50.904;5.530;2023-07-09T04:36:34;11.85;;;10.50;;
11066;SDS011;29763;50.904;5.530;2023-07-09T04:39:02;11.52;;;10.32;;
11066;SDS011;29763;50.904;5.530;2023-07-09T04:41:34;12.18;;;10.73;;
11066;SDS011;29763;50.904;5.530;2023-07-09T04:44:01;12.02;;;10.73;;
11066;SDS011;29763;50.904;5.530;2023-07-09T04:46:32;12.05;;;10.73;;
11066;SDS011;29763;50.904;5.530;2023-07-09T04:49:04;12.18;;;11.00;;
11066;SDS011;29763;50.904;5.530;2023-07-09T04:51:37;12.23;;;10.60;;
11066;SDS011;29763;50.904;5.530;2023-07-09T04:54:17;11.73;;;10.52;;
11066;SDS011;29763;50.904;5.530;2023-07-09T04:56:47;11.73;;;10.52;;
11066;SDS011;29763;50.904;5.530;2023-07-09T04:59:18;12.80;;;10.63;;
11066;SDS011;29763;50.904;5.530;2023-07-09T05:02:07;11.95;;;10.65;;
11066;SDS011;29763;50.904;5.530;2023-07-09T05:04:34;12.15;;;10.90;;
11066;SDS011;29763;50.904;5.530;2023-07-09T05:07:00;11.75;;;10.00;;
11066;SDS011;29763;50.904;5.530;2023-07-09T05:09:34;11.13;;;10.00;;
11066;SDS011;29763;50.904;5.530;2023-07-09T05:12:07;11.85;;;10.07;;
11066;SDS011;29763;50.904;5.530;2023-07-09T05:14:35;11.55;;;9.65;;
11066;SDS011;29763;50.904;5.530;2023-07-09T05:17:01;12.00;;;9.85;;
11066;SDS011;29763;50.904;5.530;2023-07-09T05:19:33;10.90;;;9.75;;
11066;SDS011;29763;50.904;5.530;2023-07-09T05:22:09;12.85;;;9.80;;
11066;SDS011;29763;50.904;5.530;2023-07-09T05:24:38;11.20;;;9.05;;
11066;SDS011;29763;50.904;5.530;2023-07-09T05:27:06;10.43;;;9.45;;
11066;SDS011;29763;50.904;5.530;2023-07-09T05:29:36;11.65;;;9.00;;
11066;SDS011;29763;50.904;5.530;2023-07-09T05:32:09;10.27;;;9.18;;
11066;SDS011;29763;50.904;5.530;2023-07-09T05:34:39;9.30;;;8.40;;
11066;SDS011;29763;50.904;5.530;2023-07-09T05:37:04;13.23;;;9.10;;
11066;SDS011;29763;50.904;5.530;2023-07-09T05:39:30;10.35;;;9.05;;
11066;SDS011;29763;50.904;5.530;2023-07-09T05:41:56;9.40;;;8.48;;
11066;SDS011;29763;50.904;5.530;2023-07-09T05:44:22;11.43;;;8.75;;
11066;SDS011;29763;50.904;5.530;2023-07-09T05:46:48;10.45;;;7.68;;
11066;SDS011;29763;50.904;5.530;2023-07-09T05:49:33;9.32;;;8.38;;
11066;SDS011;29763;50.904;5.530;2023-07-09T05:52:16;10.82;;;8.35;;
11066;SDS011;29763;50.904;5.530;2023-07-09T05:55:05;8.68;;;7.88;;
11066;SDS011;29763;50.904;5.530;2023-07-09T05:57:39;10.38;;;8.00;;
11066;SDS011;29763;50.904;5.530;2023-07-09T06:00:07;9.77;;;7.55;;
11066;SDS011;29763;50.904;5.530;2023-07-09T06:02:39;8.65;;;7.80;;
11066;SDS011;29763;50.904;5.530;2023-07-09T06:05:16;8.68;;;7.45;;
11066;SDS011;29763;50.904;5.530;2023-07-09T06:07:43;8.20;;;7.40;;
11066;SDS011;29763;50.904;5.530;2023-07-09T06:10:11;7.95;;;7.15;;
11066;SDS011;29763;50.904;5.530;2023-07-09T06:12:36;10.77;;;7.45;;
11066;SDS011;29763;50.904;5.530;2023-07-09T06:15:13;10.18;;;7.18;;
11066;SDS011;29763;50.904;5.530;2023-07-09T06:17:46;9.40;;;6.90;;
11066;SDS011;29763;50.904;5.530;2023-07-09T06:20:17;7.78;;;6.97;;
11066;SDS011;29763;50.904;5.530;2023-07-09T06:22:43;11.82;;;6.93;;
11066;SDS011;29763;50.904;5.530;2023-07-09T06:25:09;10.25;;;6.90;;
11066;SDS011;29763;50.904;5.530;2023-07-09T06:27:35;7.97;;;6.95;;
11066;SDS011;29763;50.904;5.530;2023-07-09T06:30:06;10.48;;;7.80;;
11066;SDS011;29763;50.904;5.530;2023-07-09T06:32:32;8.70;;;7.32;;
11066;SDS011;29763;50.904;5.530;2023-07-09T06:35:02;7.93;;;6.28;;
11066;SDS011;29763;50.904;5.530;2023-07-09T06:37:31;8.25;;;6.85;;
11066;SDS011;29763;50.904;5.530;2023-07-09T06:40:04;7.95;;;7.20;;
11066;SDS011;29763;50.904;5.530;2023-07-09T06:45:30;7.32;;;6.35;;
11066;SDS011;29763;50.904;5.530;2023-07-09T06:47:57;7.40;;;6.70;;
11066;SDS011;29763;50.904;5.530;2023-07-09T06:50:25;7.25;;;5.80;;
11066;SDS011;29763;50.904;5.530;2023-07-09T06:52:51;7.60;;;6.60;;
11066;SDS011;29763;50.904;5.530;2023-07-09T06:55:36;8.48;;;6.45;;
11066;SDS011;29763;50.904;5.530;2023-07-09T06:58:12;7.15;;;5.70;;
11066;SDS011;29763;50.904;5.530;2023-07-09T07:01:01;8.43;;;6.60;;
11066;SDS011;29763;50.904;5.530;2023-07-09T07:10:20;6.57;;;5.90;;
11066;SDS011;29763;50.904;5.530;2023-07-09T07:12:56;6.82;;;5.95;;
11066;SDS011;29763;50.904;5.530;2023-07-09T07:15:29;6.40;;;5.80;;
11066;SDS011;29763;50.904;5.530;2023-07-09T07:17:56;6.75;;;6.10;;
11066;SDS011;29763;50.904;5.530;2023-07-09T07:20:23;6.38;;;5.78;;
11066;SDS011;29763;50.904;5.530;2023-07-09T07:23:01;6.13;;;5.20;;
11066;SDS011;29763;50.904;5.530;2023-07-09T07:25:33;7.45;;;5.82;;
11066;SDS011;29763;50.904;5.530;2023-07-09T07:28:18;7.07;;;6.00;;
11066;SDS011;29763;50.904;5.530;2023-07-09T07:30:57;6.32;;;5.72;;
11066;SDS011;29763;50.904;5.530;2023-07-09T07:33:52;6.07;;;5.47;;
11066;SDS011;29763;50.904;5.530;2023-07-09T07:36:23;6.57;;;5.65;;
11066;SDS011;29763;50.904;5.530;2023-07-09T07:39:19;5.55;;;4.97;;
11066;SDS011;29763;50.904;5.530;2023-07-09T07:45:50;6.00;;;5.38;;
11066;SDS011;29763;50.904;5.530;2023-07-09T07:48:25;6.10;;;5.10;;
11066;SDS011;29763;50.904;5.530;2023-07-09T07:51:08;5.72;;;5.22;;
11066;SDS011;29763;50.904;5.530;2023-07-09T07:53:38;6.80;;;5.50;;
11066;SDS011;29763;50.904;5.530;2023-07-09T07:56:23;8.63;;;5.97;;
11066;SDS011;29763;50.904;5.530;2023-07-09T07:58:55;7.68;;;5.43;;
11066;SDS011;29763;50.904;5.530;2023-07-09T08:01:25;6.72;;;4.97;;
11066;SDS011;29763;50.904;5.530;2023-07-09T08:04:02;8.32;;;5.55;;
11066;SDS011;29763;50.904;5.530;2023-07-09T08:09:27;5.97;;;5.38;;
11066;SDS011;29763;50.904;5.530;2023-07-09T08:11:55;7.18;;;5.70;;
11066;SDS011;29763;50.904;5.530;2023-07-09T08:14:36;6.10;;;5.45;;
11066;SDS011;29763;50.904;5.530;2023-07-09T08:17:08;5.65;;;4.97;;
11066;SDS011;29763;50.904;5.530;2023-07-09T08:19:47;6.35;;;5.72;;
11066;SDS011;29763;50.904;5.530;2023-07-09T08:22:19;8.68;;;5.65;;
11066;SDS011;29763;50.904;5.530;2023-07-09T08:24:54;6.05;;;5.45;;
11066;SDS011;29763;50.904;5.530;2023-07-09T08:27:45;5.25;;;4.72;;
11066;SDS011;29763;50.904;5.530;2023-07-09T08:30:11;8.52;;;5.45;;
11066;SDS011;29763;50.904;5.530;2023-07-09T08:32:41;7.40;;;5.20;;
11066;SDS011;29763;50.904;5.530;2023-07-09T08:35:22;6.57;;;5.07;;
11066;SDS011;29763;50.904;5.530;2023-07-09T08:37:48;5.50;;;5.00;;
11066;SDS011;29763;50.904;5.530;2023-07-09T08:40:17;6.40;;;5.05;;
11066;SDS011;29763;50.904;5.530;2023-07-09T08:42:50;8.88;;;5.43;;
11066;SDS011;29763;50.904;5.530;2023-07-09T08:45:25;6.60;;;5.30;;
11066;SDS011;29763;50.904;5.530;2023-07-09T08:48:22;7.95;;;5.10;;
11066;SDS011;29763;50.904;5.530;2023-07-09T08:51:41;7.32;;;4.90;;
11066;SDS011;29763;50.904;5.530;2023-07-09T08:54:19;5.97;;;5.20;;
11066;SDS011;29763;50.904;5.530;2023-07-09T08:57:18;7.30;;;4.85;;
11066;SDS011;29763;50.904;5.530;2023-07-09T08:59:56;5.95;;;5.32;;
11066;SDS011;29763;50.904;5.530;2023-07-09T09:02:35;8.57;;;5.10;;
11066;SDS011;29763;50.904;5.530;2023-07-09T09:05:12;6.28;;;5.20;;
11066;SDS011;29763;50.904;5.530;2023-07-09T09:07:48;6.03;;;5.13;;
11066;SDS011;29763;50.904;5.530;2023-07-09T09:10:48;5.47;;;4.70;;
11066;SDS011;29763;50.904;5.530;2023-07-09T09:13:28;6.78;;;4.50;;
11066;SDS011;29763;50.904;5.530;2023-07-09T09:19:52;5.57;;;5.03;;
11066;SDS011;29763;50.904;5.530;2023-07-09T09:22:29;6.70;;;5.25;;
11066;SDS011;29763;50.904;5.530;2023-07-09T09:25:23;6.95;;;5.10;;
11066;SDS011;29763;50.904;5.530;2023-07-09T09:27:53;5.70;;;5.00;;
11066;SDS011;29763;50.904;5.530;2023-07-09T09:30:20;6.60;;;5.18;;
11066;SDS011;29763;50.904;5.530;2023-07-09T09:33:11;6.85;;;4.90;;
11066;SDS011;29763;50.904;5.530;2023-07-09T09:36:00;5.57;;;4.80;;
11066;SDS011;29763;50.904;5.530;2023-07-09T09:41:43;5.50;;;4.40;;
11066;SDS011;29763;50.904;5.530;2023-07-09T09:44:42;7.45;;;5.05;;
11066;SDS011;29763;50.904;5.530;2023-07-09T09:47:25;6.28;;;5.18;;
11066;SDS011;29763;50.904;5.530;2023-07-09T09:49:52;5.80;;;4.88;;
11066;SDS011;29763;50.904;5.530;2023-07-09T09:52:19;6.00;;;4.60;;
11066;SDS011;29763;50.904;5.530;2023-07-09T09:54:55;4.90;;;4.40;;
11066;SDS011;29763;50.904;5.530;2023-07-09T09:57:27;5.50;;;5.00;;
11066;SDS011;29763;50.904;5.530;2023-07-09T09:59:54;5.53;;;4.65;;
11066;SDS011;29763;50.904;5.530;2023-07-09T10:02:23;6.68;;;4.78;;
11066;SDS011;29763;50.904;5.530;2023-07-09T10:04:50;5.90;;;4.88;;
11066;SDS011;29763;50.904;5.530;2023-07-09T10:09:57;7.22;;;4.57;;
11066;SDS011;29763;50.904;5.530;2023-07-09T10:15:24;8.45;;;5.78;;
11066;SDS011;29763;50.904;5.530;2023-07-09T10:17:57;9.23;;;5.32;;
11066;SDS011;29763;50.904;5.530;2023-07-09T10:20:41;7.53;;;5.45;;
11066;SDS011;29763;50.904;5.530;2023-07-09T10:26:11;6.35;;;4.72;;
11066;SDS011;29763;50.904;5.530;2023-07-09T10:28:54;7.47;;;5.63;;
11066;SDS011;29763;50.904;5.530;2023-07-09T10:32:31;5.57;;;5.03;;
11066;SDS011;29763;50.904;5.530;2023-07-09T10:34:54;5.40;;;4.90;;
11066;SDS011;29763;50.904;5.530;2023-07-09T10:37:33;5.90;;;4.65;;
11066;SDS011;29763;50.904;5.530;2023-07-09T10:42:59;6.72;;;4.70;;
11066;SDS011;29763;50.904;5.530;2023-07-09T10:45:31;7.18;;;4.78;;
11066;SDS011;29763;50.904;5.530;2023-07-09T10:48:06;5.45;;;4.95;;
11066;SDS011;29763;50.904;5.530;2023-07-09T10:50:54;5.72;;;4.70;;
11066;SDS011;29763;50.904;5.530;2023-07-09T10:56:42;5.35;;;4.85;;
11066;SDS011;29763;50.904;5.530;2023-07-09T10:59:18;5.40;;;4.90;;
11066;SDS011;29763;50.904;5.530;2023-07-09T11:07:22;5.55;;;4.97;;
11066;SDS011;29763;50.904;5.530;2023-07-09T11:10:21;6.22;;;4.82;;
11066;SDS011;29763;50.904;5.530;2023-07-09T11:15:42;7.28;;;5.50;;
11066;SDS011;29763;50.904;5.530;2023-07-09T11:18:19;5.55;;;4.95;;
11066;SDS011;29763;50.904;5.530;2023-07-09T11:20:54;8.10;;;5.32;;
11066;SDS011;29763;50.904;5.530;2023-07-09T11:23:24;6.10;;;5.18;;
11066;SDS011;29763;50.904;5.530;2023-07-09T11:28:53;5.88;;;5.05;;
11066;SDS011;29763;50.904;5.530;2023-07-09T11:31:38;5.45;;;4.95;;
11066;SDS011;29763;50.904;5.530;2023-07-09T11:39:27;6.75;;;4.70;;
11066;SDS011;29763;50.904;5.530;2023-07-09T11:41:53;6.22;;;4.55;;
11066;SDS011;29763;50.904;5.530;2023-07-09T11:44:29;5.60;;;5.05;;
11066;SDS011;29763;50.904;5.530;2023-07-09T11:49:31;6.95;;;5.03;;
11066;SDS011;29763;50.904;5.530;2023-07-09T11:52:04;6.30;;;5.32;;
11066;SDS011;29763;50.904;5.530;2023-07-09T11:54:35;7.75;;;5.90;;
11066;SDS011;29763;50.904;5.530;2023-07-09T11:57:02;5.70;;;5.20;;
11066;SDS011;29763;50.904;5.530;2023-07-09T11:59:38;7.20;;;6.32;;
11066;SDS011;29763;50.904;5.530;2023-07-09T12:02:05;9.70;;;6.72;;
11066;SDS011;29763;50.904;5.530;2023-07-09T12:04:41;6.65;;;5.18;;
11066;SDS011;29763;50.904;5.530;2023-07-09T12:07:09;5.75;;;5.05;;
11066;SDS011;29763;50.904;5.530;2023-07-09T12:09:40;7.22;;;5.20;;
11066;SDS011;29763;50.904;5.530;2023-07-09T12:12:18;7.43;;;4.93;;
11066;SDS011;29763;50.904;5.530;2023-07-09T12:14:54;7.03;;;4.82;;
11066;SDS011;29763;50.904;5.530;2023-07-09T12:17:23;5.70;;;5.07;;
11066;SDS011;29763;50.904;5.530;2023-07-09T12:19:52;6.50;;;4.93;;
11066;SDS011;29763;50.904;5.530;2023-07-09T12:22:21;6.50;;;4.78;;
11066;SDS011;29763;50.904;5.530;2023-07-09T12:24:48;6.45;;;5.13;;
11066;SDS011;29763;50.904;5.530;2023-07-09T12:27:33;6.05;;;5.28;;
11066;SDS011;29763;50.904;5.530;2023-07-09T12:30:02;5.32;;;4.82;;
11066;SDS011;29763;50.904;5.530;2023-07-09T12:32:28;9.95;;;6.03;;
11066;SDS011;29763;50.904;5.530;2023-07-09T12:34:57;7.45;;;5.50;;
11066;SDS011;29763;50.904;5.530;2023-07-09T12:37:24;7.43;;;5.75;;
11066;SDS011;29763;50.904;5.530;2023-07-09T12:39:53;10.40;;;6.00;;
11066;SDS011;29763;50.904;5.530;2023-07-09T12:42:23;6.90;;;6.15;;
11066;SDS011;29763;50.904;5.530;2023-07-09T12:44:54;9.15;;;7.13;;
11066;SDS011;29763;50.904;5.530;2023-07-09T12:47:20;10.07;;;7.53;;
11066;SDS011;29763;50.904;5.530;2023-07-09T12:49:50;8.10;;;7.15;;
11066;SDS011;29763;50.904;5.530;2023-07-09T12:52:21;10.27;;;9.05;;
11066;SDS011;29763;50.904;5.530;2023-07-09T12:54:56;13.70;;;10.52;;
11066;SDS011;29763;50.904;5.530;2023-07-09T12:57:23;16.17;;;9.63;;
11066;SDS011;29763;50.904;5.530;2023-07-09T12:59:50;11.82;;;9.32;;
11066;SDS011;29763;50.904;5.530;2023-07-09T13:02:20;11.45;;;10.23;;
11066;SDS011;29763;50.904;5.530;2023-07-09T13:04:50;17.63;;;15.95;;
11066;SDS011;29763;50.904;5.530;2023-07-09T13:07:33;20.52;;;17.52;;
11066;SDS011;29763;50.904;5.530;2023-07-09T13:10:07;13.80;;;12.40;;
11066;SDS011;29763;50.904;5.530;2023-07-09T13:12:45;11.13;;;8.55;;
11066;SDS011;29763;50.904;5.530;2023-07-09T13:21:13;11.70;;;10.55;;
11066;SDS011;29763;50.904;5.530;2023-07-09T13:24:13;11.65;;;9.98;;
11066;SDS011;29763;50.904;5.530;2023-07-09T13:26:42;11.88;;;9.30;;
11066;SDS011;29763;50.904;5.530;2023-07-09T13:29:15;12.52;;;8.38;;
11066;SDS011;29763;50.904;5.530;2023-07-09T13:31:43;12.27;;;8.88;;
11066;SDS011;29763;50.904;5.530;2023-07-09T13:34:28;10.05;;;8.82;;
11066;SDS011;29763;50.904;5.530;2023-07-09T13:36:59;10.70;;;8.70;;
11066;SDS011;29763;50.904;5.530;2023-07-09T13:39:24;9.25;;;7.63;;
11066;SDS011;29763;50.904;5.530;2023-07-09T13:41:51;9.55;;;7.78;;
11066;SDS011;29763;50.904;5.530;2023-07-09T13:44:21;8.88;;;8.00;;
11066;SDS011;29763;50.904;5.530;2023-07-09T13:46:56;8.73;;;7.90;;
11066;SDS011;29763;50.904;5.530;2023-07-09T13:49:23;8.65;;;7.82;;
11066;SDS011;29763;50.904;5.530;2023-07-09T13:51:52;9.15;;;8.00;;
11066;SDS011;29763;50.904;5.530;2023-07-09T13:54:21;8.95;;;7.80;;
11066;SDS011;29763;50.904;5.530;2023-07-09T13:56:50;9.40;;;8.40;;
11066;SDS011;29763;50.904;5.530;2023-07-09T13:59:17;10.13;;;8.35;;
11066;SDS011;29763;50.904;5.530;2023-07-09T14:01:49;8.88;;;7.95;;
11066;SDS011;29763;50.904;5.530;2023-07-09T14:04:17;8.50;;;7.60;;
11066;SDS011;29763;50.904;5.530;2023-07-09T14:06:47;7.80;;;6.80;;
11066;SDS011;29763;50.904;5.530;2023-07-09T14:09:13;7.85;;;6.90;;
11066;SDS011;29763;50.904;5.530;2023-07-09T14:11:44;7.85;;;6.60;;
11066;SDS011;29763;50.904;5.530;2023-07-09T14:14:16;8.30;;;6.95;;
11066;SDS011;29763;50.904;5.530;2023-07-09T14:16:46;8.05;;;6.32;;
11066;SDS011;29763;50.904;5.530;2023-07-09T14:19:14;6.90;;;6.20;;
11066;SDS011;29763;50.904;5.530;2023-07-09T14:21:41;8.48;;;6.43;;
11066;SDS011;29763;50.904;5.530;2023-07-09T14:24:40;6.82;;;6.07;;
11066;SDS011;29763;50.904;5.530;2023-07-09T14:26:59;6.82;;;5.80;;
11066;SDS011;29763;50.904;5.530;2023-07-09T14:29:24;7.55;;;6.32;;
11066;SDS011;29763;50.904;5.530;2023-07-09T14:31:51;6.90;;;6.20;;
11066;SDS011;29763;50.904;5.530;2023-07-09T14:34:31;7.90;;;6.22;;
11066;SDS011;29763;50.904;5.530;2023-07-09T14:36:58;7.75;;;6.32;;
11066;SDS011;29763;50.904;5.530;2023-07-09T14:39:29;6.90;;;6.15;;
11066;SDS011;29763;50.904;5.530;2023-07-09T14:41:55;6.65;;;6.05;;
11066;SDS011;29763;50.904;5.530;2023-07-09T14:44:24;7.68;;;5.93;;
11066;SDS011;29763;50.904;5.530;2023-07-09T14:46:53;6.65;;;6.00;;
11066;SDS011;29763;50.904;5.530;2023-07-09T14:49:20;8.02;;;6.18;;
11066;SDS011;29763;50.904;5.530;2023-07-09T14:51:46;6.38;;;5.78;;
11066;SDS011;29763;50.904;5.530;2023-07-09T14:56:55;7.95;;;6.15;;
11066;SDS011;29763;50.904;5.530;2023-07-09T14:59:22;6.72;;;6.13;;
11066;SDS011;29763;50.904;5.530;2023-07-09T15:01:48;6.43;;;5.82;;
11066;SDS011;29763;50.904;5.530;2023-07-09T15:06:50;7.25;;;6.55;;
11066;SDS011;29763;50.904;5.530;2023-07-09T15:09:20;7.70;;;6.97;;
11066;SDS011;29763;50.904;5.530;2023-07-09T15:11:54;7.90;;;6.80;;
11066;SDS011;29763;50.904;5.530;2023-07-09T15:14:21;7.55;;;6.85;;
11066;SDS011;29763;50.904;5.530;2023-07-09T15:16:49;7.95;;;6.30;;
11066;SDS011;29763;50.904;5.530;2023-07-09T15:19:19;7.32;;;6.63;;
11066;SDS011;29763;50.904;5.530;2023-07-09T15:21:46;7.53;;;6.53;;
11066;SDS011;29763;50.904;5.530;2023-07-09T15:24:19;7.47;;;6.80;;
11066;SDS011;29763;50.904;5.530;2023-07-09T15:26:48;7.32;;;6.63;;
11066;SDS011;29763;50.904;5.530;2023-07-09T15:29:20;8.90;;;6.22;;
11066;SDS011;29763;50.904;5.530;2023-07-09T15:31:46;7.25;;;6.15;;
11066;SDS011;29763;50.904;5.530;2023-07-09T15:34:12;6.47;;;5.88;;
11066;SDS011;29763;50.904;5.530;2023-07-09T15:36:41;7.75;;;6.60;;
11066;SDS011;29763;50.904;5.530;2023-07-09T15:39:09;7.10;;;6.45;;
11066;SDS011;29763;50.904;5.530;2023-07-09T15:41:36;6.97;;;6.28;;
11066;SDS011;29763;50.904;5.530;2023-07-09T15:44:01;6.82;;;6.22;;
11066;SDS011;29763;50.904;5.530;2023-07-09T15:46:27;8.80;;;6.35;;
11066;SDS011;29763;50.904;5.530;2023-07-09T15:48:53;6.95;;;6.22;;
11066;SDS011;29763;50.904;5.530;2023-07-09T15:51:20;6.65;;;6.05;;
11066;SDS011;29763;50.904;5.530;2023-07-09T15:53:46;6.13;;;5.60;;
11066;SDS011;29763;50.904;5.530;2023-07-09T15:56:22;6.45;;;5.85;;
11066;SDS011;29763;50.904;5.530;2023-07-09T15:58:51;7.22;;;6.10;;
11066;SDS011;29763;50.904;5.530;2023-07-09T16:01:18;7.72;;;5.57;;
11066;SDS011;29763;50.904;5.530;2023-07-09T16:03:48;5.85;;;5.28;;
11066;SDS011;29763;50.904;5.530;2023-07-09T16:06:16;5.78;;;5.18;;
11066;SDS011;29763;50.904;5.530;2023-07-09T16:08:43;5.88;;;5.28;;
11066;SDS011;29763;50.904;5.530;2023-07-09T16:11:19;6.10;;;5.50;;
11066;SDS011;29763;50.904;5.530;2023-07-09T16:13:47;5.18;;;4.68;;
11066;SDS011;29763;50.904;5.530;2023-07-09T16:16:16;5.32;;;4.90;;
11066;SDS011;29763;50.904;5.530;2023-07-09T16:18:44;6.10;;;5.50;;
11066;SDS011;29763;50.904;5.530;2023-07-09T16:21:27;5.70;;;5.28;;
11066;SDS011;29763;50.904;5.530;2023-07-09T16:23:55;6.57;;;5.80;;
11066;SDS011;29763;50.904;5.530;2023-07-09T16:26:23;6.53;;;5.93;;
11066;SDS011;29763;50.904;5.530;2023-07-09T16:28:49;6.97;;;5.93;;
11066;SDS011;29763;50.904;5.530;2023-07-09T16:31:18;6.80;;;6.10;;
11066;SDS011;29763;50.904;5.530;2023-07-09T16:33:44;5.80;;;5.30;;
11066;SDS011;29763;50.904;5.530;2023-07-09T16:36:13;6.63;;;6.00;;
11066;SDS011;29763;50.904;5.530;2023-07-09T16:38:40;7.20;;;6.60;;
11066;SDS011;29763;50.904;5.530;2023-07-09T16:41:09;7.68;;;7.07;;